CheckWX is a tool to help pilots better visualize weather data.  It is not intended as a substitute for an official pre-flight weather briefing.

01:33:47 UTC

I67 METAR
Cincinnati West Airport
Harrison, Ohio, USA
Current

19 mins ago

KI67 240115Z AUTO 14004KT 10SM OVC009 12/10 A2969 RMK AO1
Observed
Feb-24 @ 01:15 UTC
Wind
  • 140° at 4 KTS
Visibility
10 SM
Flight Rules
IFR
Cloud Levels
  • Overcast at 900' AGL
Temperature
12°C / 54°F
Dewpoint
10°C / 50°F
Humidity
88%
Altimeter
29.69" Hg
Pressure
1005.42 hPa
Previous

39 mins ago

KI67 240055Z AUTO 16007KT 10SM BKN007 12/10 A2972 RMK AO1 P0003
Observed
Feb-24 @ 00:55 UTC
Wind
  • 160° at 7 KTS
Visibility
10 SM
Flight Rules
IFR
Cloud Levels
  • Broken at 700' AGL
Temperature
12°C / 54°F
Dewpoint
10°C / 50°F
Humidity
88%
Altimeter
29.72" Hg
Pressure
1006.42 hPa
Current Rain
0.03"
Previous

59 mins ago

KI67 240035Z AUTO 13012G20KT 10SM SCT007 SCT012 SCT120 11/10 A2972 RMK AO1 P0003
Observed
Feb-24 @ 00:35 UTC
Wind
  • 130° at 12 KTS
  • Gusting to 20 KTS
Visibility
10 SM
Flight Rules
VFR
Cloud Levels
  • Scattered at 700' AGL
  • Scattered at 1,200' AGL
  • Scattered at 12,000' AGL
Temperature
11°C / 52°F
Dewpoint
10°C / 50°F
Humidity
94%
Altimeter
29.72" Hg
Pressure
1006.42 hPa
Current Rain
0.03"